Time;durP1;ratioP1;P1;durP2;ratioP2;P2;SDS_P1;SDS_P2;PMS_P1;PMS_P2;Temp;Humidity;BMP_temperature;BMP_pressure;BME280_temperature;BME280_humidity;BME280_pressure;Samples;Min_cycle;Max_cycle;Signal;HPM_P1;HPM_P2
2022/11/24 00:00:52;;;;;;;39.80;14.37;;;3.50;99.90;;;;;;5017857;28;20442;-61
2022/11/24 00:03:19;;;;;;;35.40;16.63;;;3.50;99.90;;;;;;5018283;28;20477;-64
2022/11/24 00:05:47;;;;;;;35.33;17.37;;;3.50;99.90;;;;;;5008189;28;20505;-65
2022/11/24 00:08:17;;;;;;;34.90;16.07;;;3.60;99.90;;;;;;5016213;28;20457;-66
2022/11/24 00:10:44;;;;;;;35.63;16.10;;;3.50;99.90;;;;;;5018173;28;20466;-63
2022/11/24 00:13:27;;;;;;;33.73;18.43;;;3.60;99.90;;;;;;5018395;28;20454;-60
2022/11/24 00:15:54;;;;;;;35.87;17.77;;;3.60;99.90;;;;;;5018003;28;20457;-56
2022/11/24 00:18:21;;;;;;;30.67;14.70;;;3.50;99.90;;;;;;5019045;28;20473;-60
2022/11/24 00:20:52;;;;;;;39.87;14.97;;;3.60;99.90;;;;;;5019551;28;20451;-61
2022/11/24 00:23:19;;;;;;;32.97;16.90;;;3.60;99.90;;;;;;5019801;28;20484;-63
2022/11/24 00:25:46;;;;;;;33.47;15.43;;;3.50;99.90;;;;;;5007076;28;20446;-60
2022/11/24 00:28:12;;;;;;;28.87;16.83;;;3.60;99.90;;;;;;5019030;28;20418;-63
2022/11/24 00:30:41;;;;;;;52.87;19.33;;;3.60;99.90;;;;;;5018393;28;20453;-63
2022/11/24 00:33:08;;;;;;;39.00;17.87;;;3.50;99.90;;;;;;5018000;28;20442;-58
2022/11/24 00:35:34;;;;;;;37.07;16.57;;;3.40;99.90;;;;;;5013031;28;20457;-60
2022/11/24 00:38:01;;;;;;;32.17;15.27;;;3.40;99.90;;;;;;5014900;28;20473;-56
2022/11/24 00:40:28;;;;;;;37.87;16.67;;;3.40;99.90;;;;;;5017210;28;20474;-58
2022/11/24 00:42:55;;;;;;;39.90;19.70;;;3.40;99.90;;;;;;5016800;28;20486;-58
2022/11/24 00:45:41;;;;;;;32.77;16.20;;;3.30;99.90;;;;;;5012388;28;20961;-64
2022/11/24 00:48:09;;;;;;;31.37;15.57;;;3.40;99.90;;;;;;5016821;28;20790;-61
2022/11/24 00:50:36;;;;;;;34.43;14.83;;;3.40;99.90;;;;;;5017143;28;20497;-56
2022/11/24 00:53:03;;;;;;;43.00;19.83;;;3.30;99.90;;;;;;5016924;28;20473;-60
2022/11/24 00:55:30;;;;;;;32.23;15.77;;;3.30;99.90;;;;;;5018150;28;20473;-58
2022/11/24 00:57:57;;;;;;;47.30;19.17;;;3.30;99.90;;;;;;5018624;28;20481;-61
2022/11/24 01:00:25;;;;;;;43.93;16.77;;;3.30;99.90;;;;;;5017582;28;20469;-57
2022/11/24 01:02:53;;;;;;;30.93;15.40;;;3.30;99.90;;;;;;5015885;28;20477;-59
2022/11/24 01:05:20;;;;;;;32.77;15.57;;;3.30;99.90;;;;;;5018019;28;20438;-59
2022/11/24 01:07:47;;;;;;;41.60;17.23;;;3.30;99.90;;;;;;5018139;28;20442;-62
2022/11/24 01:10:14;;;;;;;37.83;19.10;;;3.40;99.90;;;;;;5017314;28;20449;-62
2022/11/24 01:12:41;;;;;;;32.43;17.23;;;3.40;99.90;;;;;;5016388;28;20476;-60
2022/11/24 01:15:09;;;;;;;34.90;16.77;;;3.40;99.90;;;;;;5006138;28;20449;-56
2022/11/24 01:17:35;;;;;;;42.13;19.27;;;3.40;99.90;;;;;;5016837;28;20970;-62
2022/11/24 01:20:04;;;;;;;26.73;15.50;;;3.40;99.90;;;;;;5017093;28;20456;-59
2022/11/24 01:22:31;;;;;;;36.20;16.60;;;3.50;99.90;;;;;;5016388;28;20481;-61
2022/11/24 01:24:59;;;;;;;27.97;15.80;;;3.40;99.90;;;;;;5016757;28;20470;-57
2022/11/24 01:27:25;;;;;;;31.90;14.27;;;3.40;99.90;;;;;;5015823;28;20430;-64
2022/11/24 01:29:52;;;;;;;38.90;17.47;;;3.50;99.90;;;;;;5015892;28;20438;-58
2022/11/24 01:32:19;;;;;;;38.37;16.60;;;3.40;99.90;;;;;;5016442;28;20457;-63
2022/11/24 01:34:46;;;;;;;31.23;16.57;;;3.40;99.90;;;;;;5016095;28;20438;-59
2022/11/24 01:37:14;;;;;;;37.27;17.07;;;3.30;99.90;;;;;;5016297;28;20457;-58
2022/11/24 01:39:41;;;;;;;35.30;17.80;;;3.30;99.90;;;;;;5016296;28;20465;-61
2022/11/24 01:42:08;;;;;;;30.63;14.77;;;3.30;99.90;;;;;;5007998;28;20982;-62
2022/11/24 01:44:35;;;;;;;36.93;16.43;;;3.40;99.90;;;;;;5012690;28;20450;-61
2022/11/24 01:47:27;;;;;;;37.43;17.70;;;3.30;99.90;;;;;;5015749;28;20461;-58
2022/11/24 01:49:57;;;;;;;27.50;14.60;;;3.30;99.90;;;;;;5015634;28;20530;-59
2022/11/24 01:52:32;;;;;;;35.57;16.40;;;3.40;99.90;;;;;;5016610;28;20446;-54
2022/11/24 01:55:03;;;;;;;37.03;17.63;;;3.30;99.90;;;;;;5017414;28;20464;-59
2022/11/24 01:57:34;;;;;;;29.03;13.47;;;3.30;99.90;;;;;;5017624;28;20477;-58
2022/11/24 02:00:05;;;;;;;39.80;18.20;;;3.30;99.90;;;;;;5016187;28;20441;-62
2022/11/24 02:02:32;;;;;;;31.67;14.83;;;3.30;99.90;;;;;;5016425;28;20490;-60
2022/11/24 02:05:04;;;;;;;35.80;16.13;;;3.20;99.90;;;;;;5016767;28;20446;-62
2022/11/24 02:07:34;;;;;;;35.93;15.80;;;3.20;99.90;;;;;;5016754;28;20502;-62
2022/11/24 02:10:04;;;;;;;34.33;16.93;;;3.30;99.90;;;;;;5004085;28;20537;-65
2022/11/24 02:12:32;;;;;;;40.37;16.07;;;3.20;99.90;;;;;;5015343;28;20442;-62
2022/11/24 02:14:59;;;;;;;42.47;16.30;;;3.10;99.90;;;;;;5003616;28;20434;-64
2022/11/24 02:17:26;;;;;;;28.77;14.83;;;3.10;99.90;;;;;;5015628;28;20438;-63
2022/11/24 02:19:57;;;;;;;33.53;14.90;;;3.10;99.90;;;;;;5015478;28;20473;-64
2022/11/24 02:22:33;;;;;;;37.90;15.43;;;3.10;99.90;;;;;;5014644;28;20513;-63
2022/11/24 02:25:07;;;;;;;33.13;18.60;;;3.20;99.90;;;;;;5016354;28;20435;-56
2022/11/24 02:27:36;;;;;;;35.70;17.83;;;3.20;99.90;;;;;;5016688;28;20489;-61
2022/11/24 02:30:03;;;;;;;34.80;13.43;;;3.20;99.90;;;;;;5015196;28;20450;-62
2022/11/24 02:32:31;;;;;;;33.90;14.87;;;3.20;99.90;;;;;;5015453;28;20493;-59
2022/11/24 02:35:03;;;;;;;24.90;13.40;;;3.20;99.90;;;;;;5004813;28;20461;-62
2022/11/24 02:37:29;;;;;;;27.50;15.30;;;3.30;99.90;;;;;;5014452;28;20454;-61
2022/11/24 02:39:56;;;;;;;34.57;16.80;;;3.40;99.90;;;;;;5015688;28;20426;-61
2022/11/24 02:42:25;;;;;;;32.00;13.20;;;3.40;99.90;;;;;;5015147;28;20485;-60
2022/11/24 02:44:57;;;;;;;24.10;13.03;;;3.30;99.90;;;;;;5016097;28;20454;-60
2022/11/24 02:47:24;;;;;;;30.90;11.53;;;3.30;99.90;;;;;;5015872;28;20430;-64
2022/11/24 02:49:50;;;;;;;34.07;17.47;;;3.30;99.90;;;;;;5012069;28;20496;-62
2022/11/24 02:52:17;;;;;;;36.40;16.00;;;3.30;99.90;;;;;;5015327;28;20457;-59
2022/11/24 02:54:44;;;;;;;37.53;17.83;;;3.30;99.90;;;;;;5016095;28;20446;-55
2022/11/24 02:57:15;;;;;;;27.13;15.50;;;3.30;99.90;;;;;;5015778;28;20457;-66
2022/11/24 02:59:42;;;;;;;29.87;13.23;;;3.30;99.90;;;;;;5016384;28;20468;-56
2022/11/24 03:02:10;;;;;;;24.43;12.30;;;3.30;99.90;;;;;;5016910;28;20454;-51
2022/11/24 03:04:37;;;;;;;36.20;16.60;;;3.20;99.90;;;;;;5016434;28;20442;-57
2022/11/24 03:07:04;;;;;;;30.50;14.47;;;3.20;99.90;;;;;;5015076;28;20442;-57
2022/11/24 03:09:31;;;;;;;36.70;13.60;;;3.20;99.90;;;;;;5015756;28;20434;-61
2022/11/24 03:11:58;;;;;;;28.67;14.33;;;3.20;99.90;;;;;;5015255;28;20477;-62
2022/11/24 03:14:24;;;;;;;29.77;16.60;;;3.20;99.90;;;;;;5015423;28;20453;-62
2022/11/24 03:16:51;;;;;;;35.47;16.57;;;3.20;99.90;;;;;;5010654;28;20443;-60
2022/11/24 03:19:20;;;;;;;40.07;16.83;;;3.20;99.90;;;;;;5014985;28;20469;-65
2022/11/24 03:21:46;;;;;;;27.00;15.00;;;3.20;99.90;;;;;;5014724;28;20485;-63
2022/11/24 03:24:13;;;;;;;24.73;14.17;;;3.20;99.90;;;;;;5014315;28;20470;-58
2022/11/24 03:26:40;;;;;;;24.87;12.97;;;3.10;99.90;;;;;;5002151;28;20486;-65
2022/11/24 03:29:08;;;;;;;34.73;14.47;;;3.10;99.90;;;;;;5015681;28;20442;-63
2022/11/24 03:31:35;;;;;;;24.70;14.60;;;3.10;99.90;;;;;;5014926;28;20450;-63
2022/11/24 03:34:02;;;;;;;26.40;14.63;;;3.10;99.90;;;;;;5015311;28;20470;-61
2022/11/24 03:36:30;;;;;;;28.90;14.53;;;3.10;99.90;;;;;;5015401;28;20442;-56
2022/11/24 03:38:57;;;;;;;29.90;11.33;;;3.00;99.90;;;;;;5015454;28;20466;-59
2022/11/24 03:41:24;;;;;;;26.60;11.30;;;3.10;99.90;;;;;;5015642;28;20460;-52
2022/11/24 03:43:51;;;;;;;27.73;13.10;;;3.10;99.90;;;;;;5015343;28;20482;-55
2022/11/24 03:46:18;;;;;;;37.87;17.30;;;3.10;99.90;;;;;;5014529;28;20990;-62
2022/11/24 03:48:44;;;;;;;31.37;16.23;;;3.10;99.90;;;;;;5014190;28;20442;-63
2022/11/24 03:51:11;;;;;;;22.90;13.27;;;3.10;99.90;;;;;;5013892;28;20825;-65
2022/11/24 03:53:40;;;;;;;37.90;16.80;;;3.20;99.90;;;;;;5013729;28;20463;-60
2022/11/24 03:56:07;;;;;;;23.87;15.23;;;3.20;99.90;;;;;;5013994;28;20446;-62
2022/11/24 03:58:34;;;;;;;29.40;16.50;;;3.20;99.90;;;;;;5015313;28;20462;-62
2022/11/24 04:01:01;;;;;;;25.90;14.97;;;3.20;99.90;;;;;;5015446;28;20442;-63
2022/11/24 04:03:28;;;;;;;23.83;12.80;;;3.20;99.90;;;;;;5015058;28;20509;-62
2022/11/24 04:05:55;;;;;;;33.93;15.03;;;3.20;99.90;;;;;;5014333;28;20438;-62
2022/11/24 04:08:21;;;;;;;32.23;14.40;;;3.20;99.90;;;;;;5014119;28;20442;-60
2022/11/24 04:10:52;;;;;;;23.80;13.40;;;3.20;99.90;;;;;;5013914;28;20450;-60
2022/11/24 04:13:20;;;;;;;33.20;12.67;;;3.20;99.90;;;;;;5014230;28;20430;-63
2022/11/24 04:15:47;;;;;;;23.67;12.70;;;3.10;99.90;;;;;;5014237;28;20477;-59
2022/11/24 04:18:14;;;;;;;30.60;15.03;;;3.20;99.90;;;;;;5013502;28;20452;-65
2022/11/24 04:20:42;;;;;;;27.40;13.67;;;3.20;99.90;;;;;;5010663;28;20465;-63
2022/11/24 04:23:10;;;;;;;23.10;12.30;;;3.20;99.90;;;;;;5014360;28;20514;-59
2022/11/24 04:25:46;;;;;;;33.03;17.50;;;3.20;99.90;;;;;;5014267;28;20456;-61
2022/11/24 04:28:14;;;;;;;28.07;13.00;;;3.20;99.90;;;;;;5014352;28;20466;-61
2022/11/24 04:30:43;;;;;;;31.00;11.63;;;3.40;99.90;;;;;;5013978;28;20478;-60
2022/11/24 04:33:10;;;;;;;21.20;13.03;;;3.20;99.90;;;;;;5014260;28;20446;-58
2022/11/24 04:35:37;;;;;;;27.57;14.13;;;3.20;99.90;;;;;;5014843;28;20452;-62
2022/11/24 04:38:04;;;;;;;21.27;11.27;;;3.10;99.90;;;;;;5018294;28;20453;-59
2022/11/24 04:40:31;;;;;;;27.63;12.47;;;3.10;99.90;;;;;;5017316;28;20476;-61
2022/11/24 04:42:58;;;;;;;21.90;10.50;;;3.30;99.90;;;;;;5017382;28;20565;-62
2022/11/24 04:45:26;;;;;;;26.37;14.03;;;3.10;99.90;;;;;;5017381;28;20452;-62
2022/11/24 04:47:53;;;;;;;29.07;14.07;;;3.10;99.90;;;;;;5017912;28;20426;-65
2022/11/24 04:50:20;;;;;;;24.13;14.03;;;3.10;99.90;;;;;;5017739;28;20438;-55
2022/11/24 04:52:47;;;;;;;26.50;13.57;;;3.10;99.90;;;;;;5018467;28;20477;-64
2022/11/24 04:55:14;;;;;;;26.33;12.50;;;3.10;99.90;;;;;;5018088;28;20558;-59
2022/11/24 04:57:44;;;;;;;28.03;12.53;;;3.00;99.90;;;;;;5018532;28;20477;-55
2022/11/24 05:00:12;;;;;;;22.20;13.53;;;3.00;99.90;;;;;;5018423;28;20414;-57
2022/11/24 05:02:40;;;;;;;33.00;14.20;;;3.00;99.90;;;;;;5018056;28;20554;-58
2022/11/24 05:05:08;;;;;;;22.70;11.97;;;3.00;99.90;;;;;;5017964;28;20457;-58
2022/11/24 05:07:35;;;;;;;28.27;13.13;;;3.00;99.90;;;;;;5018051;28;20438;-62
2022/11/24 05:12:54;;;;;;;25.70;12.60;;;3.00;99.90;;;;;;5016995;28;20472;-60
2022/11/24 05:15:20;;;;;;;35.03;14.20;;;3.00;99.90;;;;;;5017540;28;20425;-60
2022/11/24 05:17:49;;;;;;;22.10;11.40;;;3.00;99.90;;;;;;5017787;28;20461;-62
2022/11/24 05:20:16;;;;;;;19.70;12.30;;;3.00;99.90;;;;;;5017082;28;20464;-59
2022/11/24 05:22:42;;;;;;;33.23;14.67;;;3.00;99.90;;;;;;5016278;28;20661;-59
2022/11/24 05:25:10;;;;;;;23.27;11.83;;;3.10;99.90;;;;;;5017206;28;20450;-57
2022/11/24 05:27:37;;;;;;;19.17;10.50;;;3.10;99.90;;;;;;5016723;28;20454;-54
2022/11/24 05:30:04;;;;;;;31.07;13.13;;;3.00;99.90;;;;;;5015882;28;20453;-57
2022/11/24 05:32:31;;;;;;;21.13;10.67;;;3.00;99.90;;;;;;5016701;28;20644;-61
2022/11/24 05:35:01;;;;;;;23.70;14.63;;;3.00;99.90;;;;;;5017390;28;20462;-61
2022/11/24 05:37:28;;;;;;;18.03;10.40;;;2.90;99.90;;;;;;5016006;28;20446;-64
2022/11/24 05:39:55;;;;;;;25.40;13.33;;;3.00;99.90;;;;;;5016463;28;20461;-62
2022/11/24 05:42:41;;;;;;;33.20;11.77;;;3.00;99.90;;;;;;5017048;28;20457;-65
2022/11/24 05:45:10;;;;;;;21.50;12.20;;;3.00;99.90;;;;;;5017360;28;20450;-59
2022/11/24 05:47:38;;;;;;;19.20;12.20;;;3.00;99.90;;;;;;5016498;28;20473;-60
2022/11/24 05:50:07;;;;;;;23.70;11.07;;;3.00;99.90;;;;;;5016859;28;20442;-59
2022/11/24 05:52:33;;;;;;;26.63;13.10;;;3.10;99.90;;;;;;5017215;28;20470;-58
2022/11/24 05:55:00;;;;;;;29.27;14.00;;;3.00;99.90;;;;;;5017083;28;20590;-58
2022/11/24 05:57:27;;;;;;;24.07;10.67;;;3.00;99.90;;;;;;5017305;28;20449;-58
2022/11/24 05:59:54;;;;;;;28.43;13.27;;;3.00;99.90;;;;;;5016766;28;20457;-52
2022/11/24 06:02:21;;;;;;;24.00;11.70;;;3.10;99.90;;;;;;5016919;28;20476;-56
2022/11/24 06:04:48;;;;;;;22.67;11.77;;;3.00;99.90;;;;;;5016674;28;20504;-64
2022/11/24 06:07:17;;;;;;;15.37;9.03;;;3.00;99.90;;;;;;5016524;28;20430;-58
2022/11/24 06:09:43;;;;;;;17.87;10.40;;;3.00;99.90;;;;;;5004274;28;20474;-63
2022/11/24 06:12:11;;;;;;;22.00;9.70;;;3.00;99.90;;;;;;5011647;28;20956;-64
2022/11/24 06:14:38;;;;;;;14.17;9.10;;;3.00;99.90;;;;;;5008397;28;20473;-62
2022/11/24 06:17:06;;;;;;;21.73;11.43;;;2.90;99.90;;;;;;5015219;28;20642;-60
2022/11/24 06:19:33;;;;;;;20.67;12.30;;;2.90;99.90;;;;;;5015894;28;20776;-60
2022/11/24 06:21:59;;;;;;;23.60;10.80;;;3.00;99.90;;;;;;5010149;28;20472;-60
2022/11/24 06:24:28;;;;;;;15.93;10.23;;;3.00;99.90;;;;;;5000315;28;20545;-61
2022/11/24 06:26:55;;;;;;;20.37;9.67;;;3.00;99.90;;;;;;5000060;28;20831;-57
2022/11/24 06:29:21;;;;;;;20.83;10.70;;;3.00;99.90;;;;;;5011452;28;20465;-61
2022/11/24 06:31:48;;;;;;;23.50;9.63;;;3.00;99.90;;;;;;5006830;28;20442;-64
2022/11/24 06:34:15;;;;;;;23.13;11.57;;;3.00;99.90;;;;;;5009512;28;20534;-59
2022/11/24 06:36:42;;;;;;;18.70;11.07;;;3.00;99.90;;;;;;5006114;28;20462;-59
2022/11/24 06:39:10;;;;;;;20.10;10.73;;;3.00;99.90;;;;;;5003791;28;20450;-61
2022/11/24 06:41:38;;;;;;;18.03;9.17;;;3.10;99.90;;;;;;5003829;28;20478;-59
2022/11/24 06:44:05;;;;;;;15.50;9.30;;;3.00;99.90;;;;;;5006297;28;20511;-60
2022/11/24 06:46:32;;;;;;;17.20;8.87;;;2.90;99.90;;;;;;5004374;28;20435;-58
2022/11/24 06:48:59;;;;;;;16.77;9.97;;;2.90;99.90;;;;;;5005683;28;20434;-58
2022/11/24 06:51:26;;;;;;;23.00;8.90;;;2.90;99.90;;;;;;5003297;28;20447;-59
2022/11/24 06:53:54;;;;;;;17.83;9.10;;;2.90;99.90;;;;;;5003204;28;20541;-64
2022/11/24 06:56:21;;;;;;;21.97;11.30;;;2.90;99.90;;;;;;5004715;28;20833;-55
2022/11/24 06:58:51;;;;;;;19.83;10.47;;;2.90;99.90;;;;;;5014702;28;20462;-61
2022/11/24 07:01:20;;;;;;;20.23;10.90;;;2.90;99.90;;;;;;5014657;28;20457;-59
2022/11/24 07:03:48;;;;;;;18.07;11.20;;;2.90;99.90;;;;;;5015142;28;20470;-59
2022/11/24 07:06:15;;;;;;;27.17;10.70;;;2.90;99.90;;;;;;5015794;28;20484;-61
2022/11/24 07:08:42;;;;;;;23.63;9.27;;;2.90;99.90;;;;;;5015498;28;20442;-62
2022/11/24 07:11:11;;;;;;;18.30;11.80;;;2.90;99.90;;;;;;5014527;28;20442;-59
2022/11/24 07:13:38;;;;;;;29.10;11.53;;;2.90;99.90;;;;;;5014893;28;20442;-63
2022/11/24 07:16:13;;;;;;;20.43;9.50;;;2.90;99.90;;;;;;5003034;28;20457;-65
2022/11/24 07:18:40;;;;;;;23.57;13.07;;;2.90;99.90;;;;;;4998875;28;20477;-62
2022/11/24 07:21:07;;;;;;;28.60;12.83;;;3.00;99.90;;;;;;4995218;28;20438;-59
2022/11/24 07:23:34;;;;;;;20.90;10.90;;;2.90;99.90;;;;;;4994791;28;20463;-61
2022/11/24 07:26:02;;;;;;;25.70;13.67;;;2.90;99.90;;;;;;4994895;28;20517;-58
2022/11/24 07:28:29;;;;;;;22.17;12.70;;;3.00;99.90;;;;;;4995018;28;20451;-63
2022/11/24 07:30:57;;;;;;;28.63;13.50;;;3.00;99.90;;;;;;4995910;28;20494;-58
2022/11/24 07:33:25;;;;;;;19.10;11.90;;;3.00;99.90;;;;;;4986298;28;20478;-64
2022/11/24 07:35:53;;;;;;;18.53;11.80;;;3.10;99.90;;;;;;4994429;28;20451;-63
2022/11/24 07:38:20;;;;;;;21.00;11.63;;;3.00;99.90;;;;;;4994900;28;20529;-61
2022/11/24 07:40:47;;;;;;;24.00;10.90;;;2.90;99.90;;;;;;4994920;28;20458;-62
2022/11/24 07:43:14;;;;;;;27.40;12.90;;;3.00;99.90;;;;;;4990595;28;20538;-63
2022/11/24 07:45:41;;;;;;;26.17;10.00;;;3.00;99.90;;;;;;4994576;28;20490;-62
2022/11/24 07:48:09;;;;;;;29.97;12.20;;;3.00;99.90;;;;;;4994825;28;20432;-60
2022/11/24 07:50:37;;;;;;;20.27;11.67;;;3.10;99.90;;;;;;4995995;28;20468;-59
2022/11/24 07:53:04;;;;;;;22.87;13.10;;;3.10;99.90;;;;;;4999303;28;20485;-58
2022/11/24 07:55:31;;;;;;;27.50;14.60;;;3.10;99.90;;;;;;5015803;28;20489;-56
2022/11/24 07:58:00;;;;;;;21.73;12.90;;;3.10;99.90;;;;;;5016773;28;20442;-59
2022/11/24 08:00:27;;;;;;;28.70;13.40;;;3.20;99.90;;;;;;5016961;28;20460;-62
2022/11/24 08:02:54;;;;;;;23.23;10.90;;;3.20;99.90;;;;;;5017140;28;20433;-63
2022/11/24 08:05:21;;;;;;;24.60;11.50;;;3.20;99.90;;;;;;5017838;28;20462;-54
2022/11/24 08:07:49;;;;;;;23.30;9.37;;;3.30;99.90;;;;;;5017752;28;20466;-65
2022/11/24 08:10:17;;;;;;;20.53;12.27;;;3.30;99.90;;;;;;5013572;28;20449;-62
2022/11/24 08:12:44;;;;;;;16.17;8.70;;;3.30;99.90;;;;;;5020333;28;20438;-53
2022/11/24 08:15:12;;;;;;;25.53;10.67;;;3.40;99.90;;;;;;5021199;28;20469;-61
2022/11/24 08:17:39;;;;;;;25.13;10.80;;;3.40;99.90;;;;;;5021494;28;20453;-57
2022/11/24 08:20:08;;;;;;;23.73;10.03;;;3.40;99.90;;;;;;5021086;28;20462;-58
2022/11/24 08:22:35;;;;;;;21.70;11.10;;;3.50;99.90;;;;;;5012410;28;20458;-65
2022/11/24 08:25:04;;;;;;;20.87;10.57;;;3.50;99.90;;;;;;5021394;28;20465;-59
2022/11/24 08:27:31;;;;;;;26.50;10.70;;;3.50;99.90;;;;;;5020487;28;20461;-57
2022/11/24 08:29:58;;;;;;;24.90;12.63;;;3.50;99.90;;;;;;5020224;28;20445;-61
2022/11/24 08:32:25;;;;;;;23.40;11.37;;;3.60;99.90;;;;;;5013187;28;20529;-58
2022/11/24 08:34:51;;;;;;;29.03;10.13;;;3.60;99.90;;;;;;5019592;28;20433;-59
2022/11/24 08:37:18;;;;;;;25.83;10.07;;;3.70;99.90;;;;;;5019773;28;20422;-64
2022/11/24 08:39:46;;;;;;;19.80;9.33;;;3.70;99.90;;;;;;5020118;28;20453;-65
2022/11/24 08:42:16;;;;;;;32.00;12.90;;;3.80;99.90;;;;;;5011993;28;20776;-64
2022/11/24 08:44:43;;;;;;;19.60;9.80;;;3.80;99.90;;;;;;5017837;28;20469;-61
2022/11/24 08:47:10;;;;;;;21.20;11.37;;;3.80;99.90;;;;;;5019528;28;20426;-55
2022/11/24 08:49:37;;;;;;;23.83;13.27;;;3.90;99.90;;;;;;5012122;28;20452;-67
2022/11/24 08:52:05;;;;;;;25.10;14.00;;;3.90;99.90;;;;;;5017214;28;20458;-59
2022/11/24 08:54:32;;;;;;;24.50;12.47;;;3.90;99.90;;;;;;5021062;28;20497;-61
2022/11/24 08:56:59;;;;;;;19.23;9.17;;;3.90;99.90;;;;;;5020209;28;20469;-64
2022/11/24 08:59:27;;;;;;;36.87;14.20;;;3.90;99.90;;;;;;5019546;28;20422;-60
2022/11/24 09:01:54;;;;;;;18.37;12.00;;;3.90;99.90;;;;;;5020119;28;20430;-56
2022/11/24 09:04:21;;;;;;;23.70;11.10;;;4.00;99.90;;;;;;5019903;28;20481;-52
2022/11/24 09:06:48;;;;;;;31.43;13.70;;;4.00;99.90;;;;;;5019926;28;20454;-53
2022/11/24 09:09:16;;;;;;;27.60;12.70;;;4.20;99.90;;;;;;5020186;28;20470;-64
2022/11/24 09:11:43;;;;;;;24.63;13.63;;;4.10;99.90;;;;;;5020199;28;20430;-59
2022/11/24 09:14:10;;;;;;;29.10;11.80;;;4.10;99.90;;;;;;5019882;28;20453;-59
2022/11/24 09:16:38;;;;;;;29.07;13.73;;;4.10;99.90;;;;;;5019584;28;20461;-62
2022/11/24 09:19:07;;;;;;;26.53;13.10;;;4.20;99.90;;;;;;5019268;28;20450;-64
2022/11/24 09:21:36;;;;;;;21.53;12.47;;;4.20;99.90;;;;;;5020072;28;20453;-62
2022/11/24 09:24:03;;;;;;;22.20;11.40;;;4.20;99.90;;;;;;5014164;28;20461;-65
2022/11/24 09:26:33;;;;;;;21.00;12.20;;;4.30;99.90;;;;;;5014960;28;20458;-61
2022/11/24 09:29:01;;;;;;;24.40;12.87;;;4.30;99.90;;;;;;5019618;28;20448;-58
2022/11/24 09:31:32;;;;;;;18.77;10.80;;;4.30;99.90;;;;;;5020062;28;20485;-58
2022/11/24 09:34:01;;;;;;;26.80;12.50;;;4.40;99.90;;;;;;5019213;28;20462;-60
2022/11/24 09:36:30;;;;;;;22.33;12.23;;;4.40;99.90;;;;;;5018771;28;20518;-59
2022/11/24 09:38:58;;;;;;;27.50;12.67;;;4.30;99.90;;;;;;5018860;28;20453;-59
2022/11/24 09:41:39;;;;;;;26.30;13.20;;;4.40;99.90;;;;;;5018804;28;20429;-58
2022/11/24 09:44:13;;;;;;;29.37;14.50;;;4.40;99.90;;;;;;5019118;28;20406;-58
2022/11/24 09:46:52;;;;;;;20.60;12.23;;;4.40;99.90;;;;;;5018722;28;20476;-64
2022/11/24 09:49:30;;;;;;;17.67;12.27;;;4.60;99.90;;;;;;5018430;28;20426;-61
2022/11/24 09:51:58;;;;;;;29.97;14.40;;;4.60;99.90;;;;;;5019040;28;20419;-55
2022/11/24 09:54:29;;;;;;;17.93;10.83;;;4.60;99.90;;;;;;5019345;28;20430;-59
2022/11/24 09:56:59;;;;;;;15.43;10.20;;;4.60;99.90;;;;;;5019439;28;20526;-56
2022/11/24 09:59:27;;;;;;;36.10;14.43;;;4.60;99.90;;;;;;5019692;28;20471;-53
2022/11/24 10:01:55;;;;;;;31.97;13.37;;;4.70;99.90;;;;;;5019026;28;20470;-55
2022/11/24 10:04:28;;;;;;;25.70;13.13;;;4.80;99.90;;;;;;5018230;28;20442;-59
2022/11/24 10:07:03;;;;;;;22.73;10.97;;;4.90;99.90;;;;;;5008174;28;20430;-64
2022/11/24 10:09:51;;;;;;;25.43;10.70;;;4.90;99.90;;;;;;5019708;28;20409;-62
2022/11/24 10:12:39;;;;;;;22.27;13.20;;;4.90;99.90;;;;;;5019266;28;20525;-58
2022/11/24 10:15:33;;;;;;;26.27;14.40;;;5.00;99.90;;;;;;5019602;28;20433;-57
2022/11/24 10:18:36;;;;;;;27.57;13.43;;;5.10;99.90;;;;;;5005935;28;20466;-65
2022/11/24 10:21:22;;;;;;;22.37;11.10;;;5.40;99.90;;;;;;5019878;28;20414;-54
2022/11/24 10:24:03;;;;;;;26.63;11.70;;;5.60;99.90;;;;;;5019829;28;20489;-58
2022/11/24 10:26:36;;;;;;;22.77;12.50;;;6.00;99.90;;;;;;5020042;28;20478;-55
2022/11/24 10:29:15;;;;;;;19.60;11.23;;;6.40;99.90;;;;;;5019913;28;20418;-52
2022/11/24 10:31:44;;;;;;;20.27;11.97;;;6.50;99.90;;;;;;5019697;28;20449;-58
2022/11/24 10:34:16;;;;;;;32.70;12.83;;;6.60;99.90;;;;;;5019575;28;20426;-56
2022/11/24 10:36:51;;;;;;;23.43;12.60;;;6.60;99.90;;;;;;5019530;28;20485;-49
2022/11/24 10:39:23;;;;;;;25.47;13.77;;;6.60;99.90;;;;;;5019813;28;20422;-58
2022/11/24 10:41:56;;;;;;;24.60;14.27;;;6.40;99.90;;;;;;5019318;28;20454;-52
2022/11/24 10:44:24;;;;;;;26.30;13.43;;;6.50;99.90;;;;;;5019116;28;20421;-61
2022/11/24 10:46:51;;;;;;;28.23;13.80;;;6.50;99.90;;;;;;5019229;28;20469;-54
2022/11/24 10:49:22;;;;;;;26.60;12.50;;;6.50;99.90;;;;;;5019205;28;20426;-61
2022/11/24 10:52:06;;;;;;;25.13;12.93;;;6.50;99.90;;;;;;5018949;28;20438;-61
2022/11/24 10:54:34;;;;;;;25.97;12.67;;;6.40;99.90;;;;;;5015600;28;20522;-66
2022/11/24 10:57:02;;;;;;;26.00;13.63;;;6.30;99.90;;;;;;5009422;28;20470;-58
2022/11/24 10:59:35;;;;;;;25.73;12.53;;;6.30;99.90;;;;;;5018310;28;20430;-55
2022/11/24 11:02:03;;;;;;;26.53;13.17;;;6.40;99.90;;;;;;5018033;28;20537;-62
2022/11/24 11:04:31;;;;;;;31.87;13.37;;;6.50;99.90;;;;;;5017962;28;20431;-59
2022/11/24 11:07:17;;;;;;;21.67;12.30;;;6.50;99.90;;;;;;5017380;28;20536;-58
2022/11/24 11:09:44;;;;;;;22.60;12.17;;;6.50;99.90;;;;;;5018073;28;20444;-46
2022/11/24 11:12:18;;;;;;;23.57;13.67;;;6.50;99.90;;;;;;5018644;28;20434;-53
2022/11/24 11:14:47;;;;;;;23.23;13.00;;;6.60;99.90;;;;;;5018237;28;20436;-57
2022/11/24 11:17:33;;;;;;;19.30;10.97;;;6.60;99.90;;;;;;5017285;28;20523;-60
2022/11/24 11:20:06;;;;;;;28.70;14.13;;;6.70;99.90;;;;;;5008973;28;20428;-57
2022/11/24 11:22:37;;;;;;;21.60;12.63;;;6.80;99.90;;;;;;5018341;28;20461;-56
2022/11/24 11:25:07;;;;;;;22.80;12.80;;;6.90;99.90;;;;;;5017489;28;20485;-61
2022/11/24 11:27:34;;;;;;;24.30;12.80;;;6.90;99.90;;;;;;5016791;28;20446;-62
2022/11/24 11:30:18;;;;;;;21.37;12.30;;;7.00;99.90;;;;;;5016671;28;20437;-55
2022/11/24 11:32:53;;;;;;;25.00;13.87;;;7.00;99.90;;;;;;5017013;28;20454;-57
2022/11/24 11:35:20;;;;;;;24.23;13.23;;;7.10;99.90;;;;;;5017199;28;20421;-64
2022/11/24 11:37:51;;;;;;;23.13;11.90;;;7.20;99.90;;;;;;5012138;28;20473;-66
2022/11/24 11:40:23;;;;;;;28.23;14.50;;;7.20;99.90;;;;;;5009735;28;20450;-62
2022/11/24 11:42:56;;;;;;;25.10;14.33;;;7.20;99.90;;;;;;5016464;28;20438;-53
2022/11/24 11:45:27;;;;;;;22.73;12.77;;;7.20;99.90;;;;;;5005775;28;20447;-53
2022/11/24 11:47:58;;;;;;;26.93;14.20;;;7.20;99.90;;;;;;5016751;28;20442;-51
2022/11/24 11:50:29;;;;;;;29.33;12.70;;;7.10;99.90;;;;;;5011716;28;20477;-67
2022/11/24 11:53:15;;;;;;;20.90;13.03;;;7.10;99.90;;;;;;5013908;28;20486;-48
2022/11/24 11:55:49;;;;;;;20.13;14.07;;;7.20;99.90;;;;;;5015764;28;20465;-65
2022/11/24 11:58:50;;;;;;;25.10;13.47;;;7.30;99.90;;;;;;5005022;28;20431;-59
2022/11/24 12:01:39;;;;;;;22.27;12.13;;;7.30;99.90;;;;;;5009874;28;20444;-63
2022/11/24 12:04:16;;;;;;;27.97;15.57;;;7.20;99.90;;;;;;5016117;28;20426;-57
2022/11/24 12:07:11;;;;;;;28.10;14.77;;;7.20;99.90;;;;;;5017471;28;20462;-57
2022/11/24 12:09:53;;;;;;;26.17;15.50;;;7.20;99.90;;;;;;5017210;28;20454;-55
2022/11/24 12:12:41;;;;;;;24.00;12.90;;;7.20;99.90;;;;;;5017074;28;20417;-60
2022/11/24 12:15:19;;;;;;;19.60;12.57;;;7.20;99.90;;;;;;4978972;28;20477;-59
2022/11/24 12:17:52;;;;;;;19.70;11.27;;;7.20;99.90;;;;;;5016946;28;20406;-55
2022/11/24 12:20:32;;;;;;;16.80;10.10;;;7.30;99.90;;;;;;5003302;28;20553;-63
2022/11/24 12:23:08;;;;;;;19.83;11.93;;;7.20;99.90;;;;;;5016260;28;20452;-62
2022/11/24 12:25:40;;;;;;;22.07;11.20;;;7.20;99.90;;;;;;5015779;28;20462;-59
2022/11/24 12:28:22;;;;;;;20.20;11.57;;;7.10;99.90;;;;;;5015439;28;20437;-63
2022/11/24 12:31:00;;;;;;;26.13;14.57;;;7.10;99.90;;;;;;5015887;28;20430;-63
2022/11/24 12:33:44;;;;;;;22.83;12.07;;;7.00;99.90;;;;;;5016130;28;20469;-58
2022/11/24 12:36:22;;;;;;;18.73;11.73;;;7.00;99.90;;;;;;5015625;28;20477;-66
2022/11/24 12:38:55;;;;;;;20.90;12.27;;;7.00;99.90;;;;;;5016590;28;20441;-57
2022/11/24 12:41:40;;;;;;;15.67;11.60;;;6.90;99.90;;;;;;5016175;28;20434;-59
2022/11/24 12:44:26;;;;;;;21.77;12.50;;;6.90;99.90;;;;;;5016058;28;20426;-61
2022/11/24 12:47:03;;;;;;;27.93;15.77;;;7.00;99.90;;;;;;5015605;28;20488;-65
2022/11/24 12:49:39;;;;;;;24.80;11.83;;;6.90;99.90;;;;;;5016101;28;20867;-59
2022/11/24 12:52:16;;;;;;;27.97;14.40;;;7.00;99.90;;;;;;5016521;28;20504;-60
2022/11/24 12:54:43;;;;;;;23.97;14.10;;;7.00;99.90;;;;;;5017448;28;20426;-58